Time;durP1;ratioP1;P1;durP2;ratioP2;P2;SDS_P1;SDS_P2;PMS_P1;PMS_P2;Temp;Humidity;BMP_temperature;BMP_pressure;BME280_temperature;BME280_humidity;BME280_pressure;Samples;Min_cycle;Max_cycle;Signal;HPM_P1;HPM_P2
2024/04/01 00:02:28;;;;;;;34.73;31.40;;;;;;;;;;5045590;28;20496;-78
2024/04/01 00:04:54;;;;;;;34.70;31.00;;;;;;;;;;5045242;28;20456;-80
2024/04/01 00:07:22;;;;;;;33.07;29.93;;;;;;;;;;5044724;28;20467;-79
2024/04/01 00:09:48;;;;;;;33.37;30.37;;;;;;;;;;5046330;28;20457;-79
2024/04/01 00:12:15;;;;;;;35.90;32.67;;;;;;;;;;5045196;28;20472;-78
2024/04/01 00:14:41;;;;;;;36.80;31.27;;;;;;;;;;5045270;28;20415;-79
2024/04/01 00:17:08;;;;;;;36.07;32.27;;;;;;;;;;5048711;28;20521;-77
2024/04/01 00:19:36;;;;;;;37.03;32.80;;;;;;;;;;5047949;28;20486;-79
2024/04/01 00:22:05;;;;;;;35.50;32.10;;;;;;;;;;5048179;28;20442;-79
2024/04/01 00:24:31;;;;;;;36.73;32.53;;;;;;;;;;5048484;28;20422;-79
2024/04/01 00:27:01;;;;;;;36.33;32.90;;;;;;;;;;5048456;28;20466;-78
2024/04/01 00:29:27;;;;;;;35.30;31.97;;;;;;;;;;5049008;28;20471;-78
2024/04/01 00:31:54;;;;;;;37.33;33.83;;;;;;;;;;5046396;28;20458;-78
2024/04/01 00:34:20;;;;;;;37.47;33.00;;;;;;;;;;5045124;28;20470;-78
2024/04/01 00:36:49;;;;;;;35.63;32.33;;;;;;;;;;5047603;28;20452;-79
2024/04/01 00:39:15;;;;;;;38.87;34.57;;;;;;;;;;5047942;28;20450;-79
2024/04/01 00:41:42;;;;;;;37.63;33.57;;;;;;;;;;5047807;28;20467;-79
2024/04/01 00:44:08;;;;;;;36.83;33.60;;;;;;;;;;5050140;28;20510;-79
2024/04/01 00:46:35;;;;;;;39.23;35.00;;;;;;;;;;5050443;28;20448;-77
2024/04/01 00:49:02;;;;;;;34.40;31.37;;;;;;;;;;5048814;28;20434;-78
2024/04/01 00:51:29;;;;;;;38.47;34.87;;;;;;;;;;5048961;28;20450;-78
2024/04/01 00:53:57;;;;;;;35.93;32.53;;;;;;;;;;5047676;28;20460;-79
2024/04/01 00:56:25;;;;;;;37.07;33.33;;;;;;;;;;5047591;28;21227;-79
2024/04/01 00:58:53;;;;;;;35.47;32.17;;;;;;;;;;5048218;28;20847;-79
2024/04/01 01:01:20;;;;;;;35.70;31.60;;;;;;;;;;5047437;28;20450;-78
2024/04/01 01:03:46;;;;;;;35.60;32.37;;;;;;;;;;5047616;28;20470;-79
2024/04/01 01:06:16;;;;;;;37.37;33.40;;;;;;;;;;5047387;28;20452;-79
2024/04/01 01:08:42;;;;;;;36.17;32.83;;;;;;;;;;5048193;28;20435;-79
2024/04/01 01:11:12;;;;;;;36.60;33.13;;;;;;;;;;5049670;28;20467;-78
2024/04/01 01:13:38;;;;;;;36.13;32.70;;;;;;;;;;5052050;28;20479;-79
2024/04/01 01:16:06;;;;;;;37.23;33.80;;;;;;;;;;5051520;28;20448;-79
2024/04/01 01:18:32;;;;;;;36.43;33.00;;;;;;;;;;5050545;28;20452;-79
2024/04/01 01:20:59;;;;;;;34.73;31.30;;;;;;;;;;5038491;28;20562;-79
2024/04/01 01:23:26;;;;;;;35.87;32.33;;;;;;;;;;5041791;28;20440;-79
2024/04/01 01:25:54;;;;;;;35.07;31.60;;;;;;;;;;5041020;28;20820;-78
2024/04/01 01:28:20;;;;;;;33.00;29.77;;;;;;;;;;5037497;28;20459;-79
2024/04/01 01:30:47;;;;;;;36.87;32.30;;;;;;;;;;5036789;28;20499;-79
2024/04/01 01:33:13;;;;;;;34.30;31.23;;;;;;;;;;5039859;28;20462;-78
2024/04/01 01:35:41;;;;;;;33.27;30.03;;;;;;;;;;5042640;28;20411;-78
2024/04/01 01:38:07;;;;;;;32.60;29.20;;;;;;;;;;5036104;28;20440;-80
2024/04/01 01:40:35;;;;;;;31.20;28.50;;;;;;;;;;5039427;28;20503;-77
2024/04/01 01:43:01;;;;;;;30.47;27.73;;;;;;;;;;5037743;28;20493;-77
2024/04/01 01:45:29;;;;;;;31.10;28.57;;;;;;;;;;5035529;28;20490;-79
2024/04/01 01:47:55;;;;;;;30.00;26.97;;;;;;;;;;5037762;28;20431;-78
2024/04/01 01:50:22;;;;;;;31.17;27.90;;;;;;;;;;5037047;28;20800;-79
2024/04/01 01:52:48;;;;;;;28.23;25.80;;;;;;;;;;5041185;28;20533;-79
2024/04/01 01:55:15;;;;;;;30.60;27.57;;;;;;;;;;5038795;28;20446;-79
2024/04/01 01:57:43;;;;;;;28.83;26.53;;;;;;;;;;5040289;28;20498;-79
2024/04/01 02:00:13;;;;;;;28.20;25.57;;;;;;;;;;5041085;28;20486;-79
2024/04/01 02:02:39;;;;;;;28.23;26.10;;;;;;;;;;5040407;28;20470;-78
2024/04/01 02:05:06;;;;;;;29.10;26.00;;;;;;;;;;5035731;28;20433;-80
2024/04/01 02:07:32;;;;;;;27.73;25.27;;;;;;;;;;5033857;28;20461;-79
2024/04/01 02:09:59;;;;;;;26.07;24.07;;;;;;;;;;5033463;28;20415;-78
2024/04/01 02:12:25;;;;;;;27.03;25.20;;;;;;;;;;5033832;28;20569;-78
2024/04/01 02:14:54;;;;;;;28.47;26.13;;;;;;;;;;5033629;28;20546;-77
2024/04/01 02:17:20;;;;;;;27.73;25.33;;;;;;;;;;5033608;28;20471;-78
2024/04/01 02:19:47;;;;;;;26.03;24.03;;;;;;;;;;5033103;28;20461;-80
2024/04/01 02:22:13;;;;;;;27.10;24.47;;;;;;;;;;5034515;28;20501;-78
2024/04/01 02:24:40;;;;;;;26.70;24.30;;;;;;;;;;5034023;28;20460;-79
2024/04/01 02:27:06;;;;;;;26.37;23.80;;;;;;;;;;5033630;28;20498;-78
2024/04/01 02:29:33;;;;;;;26.77;24.40;;;;;;;;;;5033525;28;20472;-78
2024/04/01 02:32:01;;;;;;;24.23;22.43;;;;;;;;;;5033912;28;20887;-78
2024/04/01 02:34:28;;;;;;;25.27;23.30;;;;;;;;;;5033634;28;20418;-79
2024/04/01 02:36:55;;;;;;;25.93;23.87;;;;;;;;;;5033516;28;20972;-77
2024/04/01 02:39:22;;;;;;;24.43;22.77;;;;;;;;;;5032898;28;20450;-78
2024/04/01 02:41:48;;;;;;;24.30;22.70;;;;;;;;;;5033275;28;20480;-77
2024/04/01 02:44:16;;;;;;;23.93;22.13;;;;;;;;;;5033985;28;20465;-79
2024/04/01 02:46:42;;;;;;;26.03;24.13;;;;;;;;;;5033913;28;20476;-79
2024/04/01 02:49:11;;;;;;;26.50;24.27;;;;;;;;;;5033941;28;20429;-79
2024/04/01 02:51:37;;;;;;;25.60;23.50;;;;;;;;;;5033618;28;20501;-79
2024/04/01 02:54:04;;;;;;;24.20;22.50;;;;;;;;;;5033771;28;20555;-78
2024/04/01 02:56:30;;;;;;;26.00;23.90;;;;;;;;;;5033885;28;20573;-78
2024/04/01 02:58:58;;;;;;;25.10;23.40;;;;;;;;;;5033590;28;20458;-79
2024/04/01 03:01:24;;;;;;;23.63;21.97;;;;;;;;;;5033091;28;20984;-78
2024/04/01 03:03:52;;;;;;;24.90;22.97;;;;;;;;;;5033689;28;20427;-78
2024/04/01 03:06:20;;;;;;;24.73;22.70;;;;;;;;;;5033478;28;20445;-79
2024/04/01 03:08:47;;;;;;;24.30;22.10;;;;;;;;;;5032504;28;20442;-77
2024/04/01 03:11:13;;;;;;;24.53;22.50;;;;;;;;;;5033306;28;20992;-78
2024/04/01 03:13:40;;;;;;;23.17;21.40;;;;;;;;;;5033256;28;20457;-78
2024/04/01 03:16:07;;;;;;;23.70;21.90;;;;;;;;;;5033703;28;20426;-77
2024/04/01 03:18:34;;;;;;;24.40;22.57;;;;;;;;;;5031917;28;20554;-77
2024/04/01 03:21:00;;;;;;;23.00;21.03;;;;;;;;;;5033446;28;20467;-78
2024/04/01 03:23:28;;;;;;;23.83;22.07;;;;;;;;;;5033000;28;20422;-79
2024/04/01 03:25:54;;;;;;;24.07;22.47;;;;;;;;;;5033282;28;20448;-78
2024/04/01 03:28:21;;;;;;;23.23;21.47;;;;;;;;;;5032245;28;20955;-78
2024/04/01 03:30:47;;;;;;;23.63;21.93;;;;;;;;;;5032854;28;20506;-78
2024/04/01 03:33:15;;;;;;;22.77;21.20;;;;;;;;;;5033190;28;20868;-78
2024/04/01 03:35:42;;;;;;;21.70;20.50;;;;;;;;;;5033467;28;20540;-78
2024/04/01 03:38:09;;;;;;;22.33;20.57;;;;;;;;;;5032436;28;20467;-79
2024/04/01 03:40:40;;;;;;;22.00;20.70;;;;;;;;;;5033420;28;20481;-78
2024/04/01 03:43:06;;;;;;;22.80;20.87;;;;;;;;;;5033321;28;20989;-79
2024/04/01 03:45:33;;;;;;;22.30;20.60;;;;;;;;;;5033727;28;20440;-77
2024/04/01 03:47:59;;;;;;;22.70;20.90;;;;;;;;;;5033056;28;20457;-79
2024/04/01 03:50:26;;;;;;;23.00;21.30;;;;;;;;;;5036568;28;20419;-79
2024/04/01 03:52:52;;;;;;;23.10;21.30;;;;;;;;;;5037309;28;20462;-78
2024/04/01 03:55:19;;;;;;;23.00;21.60;;;;;;;;;;5037258;28;20448;-77
2024/04/01 03:57:47;;;;;;;22.37;20.77;;;;;;;;;;5037026;28;20584;-78
2024/04/01 04:00:15;;;;;;;23.07;21.17;;;;;;;;;;5036793;28;20494;-79
2024/04/01 04:02:42;;;;;;;22.13;20.57;;;;;;;;;;5037009;28;20446;-79
2024/04/01 04:05:09;;;;;;;21.93;20.63;;;;;;;;;;5036872;28;20491;-78
2024/04/01 04:07:35;;;;;;;21.47;20.17;;;;;;;;;;5036993;28;20443;-80
2024/04/01 04:10:03;;;;;;;22.57;20.77;;;;;;;;;;5043908;28;20480;-78
2024/04/01 04:12:31;;;;;;;21.80;20.33;;;;;;;;;;5036932;28;20462;-78
2024/04/01 04:14:59;;;;;;;21.40;19.77;;;;;;;;;;5037220;28;20455;-77
2024/04/01 04:17:25;;;;;;;21.53;20.10;;;;;;;;;;5037011;28;20455;-78
2024/04/01 04:19:52;;;;;;;21.47;20.10;;;;;;;;;;5035953;28;20516;-79
2024/04/01 04:22:18;;;;;;;21.50;20.00;;;;;;;;;;5036810;28;20521;-78
2024/04/01 04:24:45;;;;;;;21.40;19.97;;;;;;;;;;5037649;28;20451;-79
2024/04/01 04:27:12;;;;;;;20.70;19.43;;;;;;;;;;5037138;28;20457;-78
2024/04/01 04:29:39;;;;;;;21.53;20.23;;;;;;;;;;5035601;28;20434;-78
2024/04/01 04:32:10;;;;;;;20.67;19.43;;;;;;;;;;5037218;28;20496;-80
2024/04/01 04:34:37;;;;;;;21.43;20.03;;;;;;;;;;5037377;28;20412;-78
2024/04/01 04:37:05;;;;;;;22.37;20.70;;;;;;;;;;5037430;28;20477;-80
2024/04/01 04:39:32;;;;;;;20.87;19.50;;;;;;;;;;5035738;28;20485;-78
2024/04/01 04:41:59;;;;;;;20.70;19.40;;;;;;;;;;5036503;28;20965;-79
2024/04/01 04:44:26;;;;;;;19.90;18.70;;;;;;;;;;5036990;28;20446;-78
2024/04/01 04:46:52;;;;;;;21.07;19.50;;;;;;;;;;5035393;28;20534;-78
2024/04/01 04:49:20;;;;;;;20.80;19.60;;;;;;;;;;5035161;28;20460;-78
2024/04/01 04:51:46;;;;;;;20.53;19.43;;;;;;;;;;5036824;28;20521;-78
2024/04/01 04:54:13;;;;;;;20.43;19.20;;;;;;;;;;5035903;28;20470;-79
2024/04/01 04:56:39;;;;;;;20.30;19.20;;;;;;;;;;5036097;28;20482;-78
2024/04/01 04:59:10;;;;;;;20.83;19.50;;;;;;;;;;5035251;28;20430;-80
2024/04/01 05:01:37;;;;;;;20.90;19.40;;;;;;;;;;5035165;28;20475;-78
2024/04/01 05:04:04;;;;;;;22.37;20.87;;;;;;;;;;5035669;28;20451;-79
2024/04/01 05:06:33;;;;;;;20.47;19.17;;;;;;;;;;5035922;28;20419;-78
2024/04/01 05:08:59;;;;;;;21.70;20.30;;;;;;;;;;5035526;28;20909;-78
2024/04/01 05:11:26;;;;;;;21.90;20.50;;;;;;;;;;5034145;28;21058;-75
2024/04/01 05:13:52;;;;;;;21.47;20.03;;;;;;;;;;5035559;28;20586;-77
2024/04/01 05:16:19;;;;;;;21.50;20.20;;;;;;;;;;5034392;28;20931;-76
2024/04/01 05:18:46;;;;;;;21.53;20.20;;;;;;;;;;5033980;28;20418;-76
2024/04/01 05:21:13;;;;;;;22.13;20.73;;;;;;;;;;5033704;28;20538;-75
2024/04/01 05:23:41;;;;;;;22.10;20.70;;;;;;;;;;5034198;28;20451;-76
2024/04/01 05:26:09;;;;;;;23.33;21.70;;;;;;;;;;5033918;28;20467;-77
2024/04/01 05:28:35;;;;;;;22.70;20.87;;;;;;;;;;5033367;28;20451;-77
2024/04/01 05:31:02;;;;;;;21.53;19.90;;;;;;;;;;5033578;28;20936;-76
2024/04/01 05:33:33;;;;;;;21.60;20.10;;;;;;;;;;5034034;28;20491;-76
2024/04/01 05:36:02;;;;;;;21.00;19.60;;;;;;;;;;5033637;28;20460;-76
2024/04/01 05:38:28;;;;;;;21.60;20.30;;;;;;;;;;5033294;28;20876;-75
2024/04/01 05:40:56;;;;;;;22.20;20.70;;;;;;;;;;5033043;28;21012;-76
2024/04/01 05:43:22;;;;;;;22.50;20.67;;;;;;;;;;5033593;28;20482;-76
2024/04/01 05:45:49;;;;;;;21.87;20.23;;;;;;;;;;5033515;28;20487;-76
2024/04/01 05:48:16;;;;;;;21.77;20.30;;;;;;;;;;5032970;28;20445;-76
2024/04/01 05:50:46;;;;;;;22.03;20.43;;;;;;;;;;5033523;28;20469;-76
2024/04/01 05:53:13;;;;;;;24.93;23.20;;;;;;;;;;5033001;28;20491;-75
2024/04/01 05:55:40;;;;;;;22.83;21.13;;;;;;;;;;5038552;28;20513;-76
2024/04/01 05:58:08;;;;;;;23.20;21.53;;;;;;;;;;5033041;28;20551;-77
2024/04/01 06:00:35;;;;;;;24.03;22.10;;;;;;;;;;5033487;28;20459;-77
2024/04/01 06:03:01;;;;;;;25.17;23.57;;;;;;;;;;5033160;28;20464;-76
2024/04/01 06:05:28;;;;;;;24.60;22.63;;;;;;;;;;5033446;28;20486;-76
2024/04/01 06:07:54;;;;;;;24.53;22.57;;;;;;;;;;5033477;28;20448;-76
2024/04/01 06:10:21;;;;;;;25.37;23.53;;;;;;;;;;5033129;28;20980;-76
2024/04/01 06:12:47;;;;;;;25.83;24.23;;;;;;;;;;5031418;28;20462;-75
2024/04/01 06:15:15;;;;;;;26.87;24.90;;;;;;;;;;5032820;28;20455;-76
2024/04/01 06:17:41;;;;;;;26.40;24.47;;;;;;;;;;5033189;28;20922;-76
2024/04/01 06:20:11;;;;;;;28.53;26.03;;;;;;;;;;5032713;28;20478;-77
2024/04/01 06:22:37;;;;;;;29.60;27.20;;;;;;;;;;5032671;28;20982;-77
2024/04/01 06:25:04;;;;;;;30.30;27.87;;;;;;;;;;5033060;28;20506;-75
2024/04/01 06:27:30;;;;;;;28.77;26.97;;;;;;;;;;5033756;28;20444;-76
2024/04/01 06:29:57;;;;;;;31.47;29.20;;;;;;;;;;5032198;28;20443;-76
2024/04/01 06:32:25;;;;;;;33.83;30.93;;;;;;;;;;5032580;28;20443;-77
2024/04/01 06:34:52;;;;;;;30.97;28.80;;;;;;;;;;5032132;28;20542;-77
2024/04/01 06:37:18;;;;;;;33.13;30.27;;;;;;;;;;5032981;28;20952;-76
2024/04/01 06:39:45;;;;;;;33.30;30.70;;;;;;;;;;5032503;28;20443;-76
2024/04/01 06:42:11;;;;;;;33.90;31.40;;;;;;;;;;5032600;28;20509;-76
2024/04/01 06:44:38;;;;;;;36.97;34.17;;;;;;;;;;5032478;28;20565;-76
2024/04/01 06:47:05;;;;;;;37.57;34.63;;;;;;;;;;5032438;28;20475;-75
2024/04/01 06:49:33;;;;;;;43.10;39.30;;;;;;;;;;5031692;28;20917;-77
2024/04/01 06:51:59;;;;;;;45.20;41.60;;;;;;;;;;5032405;28;20522;-76
2024/04/01 06:54:26;;;;;;;49.87;45.20;;;;;;;;;;5032110;28;20500;-77
2024/04/01 06:56:52;;;;;;;53.17;49.20;;;;;;;;;;5032680;28;20452;-76
2024/04/01 06:59:20;;;;;;;52.07;47.90;;;;;;;;;;5032186;28;20426;-77
2024/04/01 07:01:46;;;;;;;52.33;48.73;;;;;;;;;;5032112;28;20509;-76
2024/04/01 07:04:13;;;;;;;57.40;53.23;;;;;;;;;;5031972;28;20439;-76
2024/04/01 07:06:40;;;;;;;76.53;71.93;;;;;;;;;;5032806;28;20454;-76
2024/04/01 07:09:08;;;;;;;85.87;80.17;;;;;;;;;;5032316;28;20452;-77
2024/04/01 07:11:35;;;;;;;79.57;74.83;;;;;;;;;;5035808;28;20479;-77
2024/04/01 07:14:02;;;;;;;85.93;80.20;;;;;;;;;;5032840;28;20490;-75
2024/04/01 07:16:28;;;;;;;87.23;81.13;;;;;;;;;;5031633;28;21045;-76
2024/04/01 07:18:56;;;;;;;87.03;81.33;;;;;;;;;;5032748;28;20493;-76
2024/04/01 07:21:22;;;;;;;84.93;79.70;;;;;;;;;;5031584;28;20442;-77
2024/04/01 07:23:50;;;;;;;85.23;79.93;;;;;;;;;;5031774;28;20502;-75
2024/04/01 07:26:16;;;;;;;88.80;83.37;;;;;;;;;;5031710;28;20439;-76
2024/04/01 07:28:45;;;;;;;87.50;82.40;;;;;;;;;;5031715;28;20485;-76
2024/04/01 07:31:11;;;;;;;86.53;81.33;;;;;;;;;;5031820;28;20471;-76
2024/04/01 07:33:38;;;;;;;88.63;83.30;;;;;;;;;;5032145;28;20523;-76
2024/04/01 07:36:05;;;;;;;87.07;81.37;;;;;;;;;;5031726;28;20475;-76
2024/04/01 07:38:32;;;;;;;90.20;84.47;;;;;;;;;;5031712;28;20474;-76
2024/04/01 07:40:59;;;;;;;94.80;88.60;;;;;;;;;;5032155;28;20459;-76
2024/04/01 07:43:26;;;;;;;88.60;82.67;;;;;;;;;;5032428;28;20541;-77
2024/04/01 07:45:54;;;;;;;89.27;84.07;;;;;;;;;;5031725;28;20506;-76
2024/04/01 07:48:21;;;;;;;87.33;82.03;;;;;;;;;;5031837;28;20436;-77
2024/04/01 07:50:47;;;;;;;83.33;78.13;;;;;;;;;;5031899;28;20476;-76
2024/04/01 07:53:14;;;;;;;84.47;78.90;;;;;;;;;;5032000;28;20486;-77
2024/04/01 07:55:40;;;;;;;103.27;96.47;;;;;;;;;;5031086;28;20848;-76
2024/04/01 07:58:08;;;;;;;85.40;79.50;;;;;;;;;;5030428;28;21015;-77
2024/04/01 08:00:36;;;;;;;84.70;79.20;;;;;;;;;;5031606;28;20443;-75
2024/04/01 08:03:03;;;;;;;87.80;82.13;;;;;;;;;;5031322;28;20459;-76
2024/04/01 08:05:29;;;;;;;82.93;77.73;;;;;;;;;;5032216;28;20457;-76
2024/04/01 08:07:56;;;;;;;86.07;80.77;;;;;;;;;;5031011;28;20442;-77
2024/04/01 08:10:22;;;;;;;91.33;85.43;;;;;;;;;;5030920;28;20502;-76
2024/04/01 08:12:49;;;;;;;90.80;85.00;;;;;;;;;;5031795;28;20419;-76
2024/04/01 08:15:16;;;;;;;87.10;81.03;;;;;;;;;;5031716;28;20481;-76
2024/04/01 08:17:44;;;;;;;86.43;81.03;;;;;;;;;;5030854;28;20540;-77
2024/04/01 08:20:10;;;;;;;89.63;84.00;;;;;;;;;;5030775;28;20430;-76
2024/04/01 08:22:37;;;;;;;90.73;84.77;;;;;;;;;;5031695;28;20556;-76
2024/04/01 08:25:04;;;;;;;91.33;85.53;;;;;;;;;;5031356;28;20904;-76
2024/04/01 08:27:31;;;;;;;89.03;83.23;;;;;;;;;;5030822;28;20456;-76
2024/04/01 08:29:57;;;;;;;85.57;80.37;;;;;;;;;;5031012;28;20451;-77
2024/04/01 08:32:26;;;;;;;83.47;78.37;;;;;;;;;;5031354;28;20475;-77
2024/04/01 08:34:52;;;;;;;81.63;76.93;;;;;;;;;;5031414;28;20541;-76
2024/04/01 08:37:19;;;;;;;82.67;77.60;;;;;;;;;;5034241;28;20429;-77
2024/04/01 08:39:45;;;;;;;79.33;74.63;;;;;;;;;;5033822;28;20474;-76
2024/04/01 08:42:12;;;;;;;75.60;71.10;;;;;;;;;;5034742;28;20439;-76
2024/04/01 08:44:39;;;;;;;70.27;66.17;;;;;;;;;;5034968;28;20426;-77
2024/04/01 08:47:06;;;;;;;77.03;72.60;;;;;;;;;;5034714;28;20450;-76
2024/04/01 08:49:43;;;;;;;70.43;66.27;;;;;;;;;;5034086;28;20530;-76
2024/04/01 08:52:13;;;;;;;74.93;70.70;;;;;;;;;;5034721;28;20521;-77
2024/04/01 08:54:39;;;;;;;72.17;67.57;;;;;;;;;;5034383;28;20492;-76
2024/04/01 08:57:06;;;;;;;65.93;62.20;;;;;;;;;;5034117;28;20506;-76
2024/04/01 08:59:33;;;;;;;65.07;61.37;;;;;;;;;;5033392;28;20480;-75
2024/04/01 09:02:01;;;;;;;64.37;60.60;;;;;;;;;;5034461;28;20507;-75
2024/04/01 09:04:28;;;;;;;72.10;67.80;;;;;;;;;;5040961;28;21009;-77
2024/04/01 09:06:57;;;;;;;65.13;61.53;;;;;;;;;;5044897;28;20457;-76
2024/04/01 09:09:23;;;;;;;68.63;64.73;;;;;;;;;;5035051;28;20463;-76
2024/04/01 09:11:51;;;;;;;67.47;63.50;;;;;;;;;;5035650;28;20442;-76
2024/04/01 09:14:17;;;;;;;66.90;62.90;;;;;;;;;;5035711;28;20498;-77
2024/04/01 09:16:44;;;;;;;65.20;61.33;;;;;;;;;;5036249;28;20459;-76
2024/04/01 09:19:11;;;;;;;65.03;61.13;;;;;;;;;;5036973;28;20473;-77
2024/04/01 09:21:38;;;;;;;68.47;64.50;;;;;;;;;;5035406;28;21075;-77
2024/04/01 09:24:06;;;;;;;68.20;64.10;;;;;;;;;;5036642;28;20425;-77
2024/04/01 09:26:33;;;;;;;66.27;61.90;;;;;;;;;;5036942;28;20509;-76
2024/04/01 09:29:02;;;;;;;63.80;60.03;;;;;;;;;;5034944;28;20422;-77
2024/04/01 09:31:29;;;;;;;62.80;59.10;;;;;;;;;;5033805;28;20474;-76
2024/04/01 09:33:55;;;;;;;61.90;58.00;;;;;;;;;;5033536;28;20497;-77
2024/04/01 09:36:23;;;;;;;54.93;51.93;;;;;;;;;;5033422;28;20472;-77
2024/04/01 09:38:51;;;;;;;57.07;53.87;;;;;;;;;;5035308;28;20500;-76
2024/04/01 09:41:20;;;;;;;55.47;52.37;;;;;;;;;;5033136;28;20503;-77
2024/04/01 09:43:46;;;;;;;53.27;50.17;;;;;;;;;;5034086;28;20414;-77
2024/04/01 09:46:14;;;;;;;55.03;51.73;;;;;;;;;;5033553;28;20464;-77
2024/04/01 09:48:40;;;;;;;55.63;52.53;;;;;;;;;;5033884;28;20969;-77
2024/04/01 09:51:09;;;;;;;53.00;49.90;;;;;;;;;;5033579;28;20465;-76
2024/04/01 09:53:35;;;;;;;52.90;50.00;;;;;;;;;;5032630;28;20541;-75
2024/04/01 09:56:19;;;;;;;54.10;51.00;;;;;;;;;;5040159;28;20471;-77
2024/04/01 09:58:58;;;;;;;53.53;50.43;;;;;;;;;;5039931;28;20444;-77
2024/04/01 10:01:31;;;;;;;54.43;50.87;;;;;;;;;;5037310;28;20847;-76
2024/04/01 10:04:21;;;;;;;53.27;50.07;;;;;;;;;;5033883;28;20440;-76
2024/04/01 10:07:05;;;;;;;52.90;49.63;;;;;;;;;;5035402;28;20689;-77
2024/04/01 10:09:49;;;;;;;55.47;52.17;;;;;;;;;;5035594;28;20502;-76
2024/04/01 10:12:29;;;;;;;52.10;49.20;;;;;;;;;;5034050;28;20883;-76
2024/04/01 10:15:15;;;;;;;53.17;49.83;;;;;;;;;;5035072;28;20529;-76
2024/04/01 10:17:53;;;;;;;50.40;47.40;;;;;;;;;;5035104;28;20527;-77
2024/04/01 10:20:32;;;;;;;50.93;47.63;;;;;;;;;;5034725;28;20444;-76
2024/04/01 10:23:18;;;;;;;51.20;47.77;;;;;;;;;;5033333;28;20481;-77
2024/04/01 10:25:57;;;;;;;48.47;45.40;;;;;;;;;;5037088;28;20476;-76
2024/04/01 10:28:39;;;;;;;46.87;44.07;;;;;;;;;;5034329;28;20819;-76
2024/04/01 10:31:18;;;;;;;47.53;44.53;;;;;;;;;;5034562;28;20438;-76
2024/04/01 10:33:58;;;;;;;50.40;46.90;;;;;;;;;;5033526;28;20971;-76
2024/04/01 10:36:30;;;;;;;51.60;48.50;;;;;;;;;;5033311;28;21371;-77
2024/04/01 10:39:18;;;;;;;45.00;42.10;;;;;;;;;;5031997;28;20455;-76
2024/04/01 10:42:06;;;;;;;47.50;44.60;;;;;;;;;;5033489;28;20518;-77
2024/04/01 10:44:50;;;;;;;47.00;43.70;;;;;;;;;;5035948;28;20417;-77
2024/04/01 10:47:30;;;;;;;47.77;44.77;;;;;;;;;;5035446;28;20459;-77
2024/04/01 10:50:08;;;;;;;49.47;46.07;;;;;;;;;;5032232;28;20482;-75
2024/04/01 10:52:48;;;;;;;47.67;44.77;;;;;;;;;;5033493;28;20454;-75
2024/04/01 10:55:28;;;;;;;47.27;44.57;;;;;;;;;;5032256;28;20495;-77
2024/04/01 10:58:11;;;;;;;42.70;40.10;;;;;;;;;;5034064;28;20407;-76
2024/04/01 11:01:05;;;;;;;41.23;39.00;;;;;;;;;;5033418;28;20508;-76
2024/04/01 11:03:45;;;;;;;36.87;34.87;;;;;;;;;;5032588;28;20964;-76
2024/04/01 11:06:21;;;;;;;37.73;35.50;;;;;;;;;;5032839;28;20452;-76
2024/04/01 11:08:52;;;;;;;36.57;34.27;;;;;;;;;;5034363;28;20459;-76
2024/04/01 11:11:27;;;;;;;36.30;34.20;;;;;;;;;;5034763;28;20473;-76
2024/04/01 11:13:54;;;;;;;36.07;33.97;;;;;;;;;;5036269;28;20476;-76
2024/04/01 11:16:22;;;;;;;36.33;34.03;;;;;;;;;;5034912;28;20486;-76
2024/04/01 11:19:06;;;;;;;37.70;35.30;;;;;;;;;;5035008;28;20460;-76
2024/04/01 11:21:35;;;;;;;32.17;30.33;;;;;;;;;;5033127;28;20448;-76
2024/04/01 11:24:09;;;;;;;33.00;30.97;;;;;;;;;;5033210;28;21173;-77
2024/04/01 11:26:54;;;;;;;32.37;30.27;;;;;;;;;;5032494;28;20431;-76
2024/04/01 11:29:26;;;;;;;34.87;32.50;;;;;;;;;;5030602;28;20484;-76
2024/04/01 11:31:59;;;;;;;33.53;31.43;;;;;;;;;;5030958;28;20520;-76
2024/04/01 11:34:29;;;;;;;36.00;33.50;;;;;;;;;;5031219;28;20434;-76
2024/04/01 11:37:00;;;;;;;38.07;35.47;;;;;;;;;;5031640;28;20762;-76
2024/04/01 11:39:27;;;;;;;36.37;33.83;;;;;;;;;;5030195;28;20476;-77
2024/04/01 11:41:56;;;;;;;37.60;34.80;;;;;;;;;;5031230;28;20448;-76
2024/04/01 11:44:25;;;;;;;36.03;33.40;;;;;;;;;;5031301;28;20414;-77
2024/04/01 11:46:52;;;;;;;44.90;41.50;;;;;;;;;;5031180;28;20448;-77
2024/04/01 11:49:23;;;;;;;46.83;43.87;;;;;;;;;;5030011;28;20471;-76
2024/04/01 11:51:52;;;;;;;48.10;45.00;;;;;;;;;;5031295;28;20467;-78
2024/04/01 11:54:24;;;;;;;55.43;51.67;;;;;;;;;;5029981;28;20477;-76
2024/04/01 11:56:51;;;;;;;53.27;49.87;;;;;;;;;;5031048;28;20410;-77
2024/04/01 11:59:27;;;;;;;61.43;57.07;;;;;;;;;;5030024;28;20438;-77
2024/04/01 12:01:54;;;;;;;56.40;52.60;;;;;;;;;;5030835;28;20555;-77
2024/04/01 12:04:20;;;;;;;50.50;47.30;;;;;;;;;;5031222;28;20444;-76
2024/04/01 12:06:47;;;;;;;53.10;49.50;;;;;;;;;;5031138;28;20435;-77
2024/04/01 12:09:15;;;;;;;51.10;47.70;;;;;;;;;;5029982;28;20451;-76
2024/04/01 12:11:44;;;;;;;56.80;52.80;;;;;;;;;;5034550;28;20575;-77
2024/04/01 12:14:10;;;;;;;55.13;51.17;;;;;;;;;;5034822;28;20462;-77
2024/04/01 12:16:37;;;;;;;58.07;53.43;;;;;;;;;;5034591;28;20963;-77
2024/04/01 12:19:06;;;;;;;63.00;58.80;;;;;;;;;;5033669;28;20476;-77
2024/04/01 12:21:33;;;;;;;62.33;58.33;;;;;;;;;;5034234;28;20544;-77
2024/04/01 12:24:00;;;;;;;55.40;52.10;;;;;;;;;;5034746;28;20915;-77
2024/04/01 12:26:38;;;;;;;58.53;55.03;;;;;;;;;;5034612;28;20474;-77
2024/04/01 12:29:04;;;;;;;61.70;57.73;;;;;;;;;;5034158;28;20432;-78
2024/04/01 12:31:32;;;;;;;58.77;55.17;;;;;;;;;;5033940;28;20831;-77
2024/04/01 12:33:59;;;;;;;57.07;53.67;;;;;;;;;;5034619;28;20906;-77
2024/04/01 12:36:26;;;;;;;55.80;52.50;;;;;;;;;;5034608;28;20505;-77
2024/04/01 12:38:52;;;;;;;48.80;46.07;;;;;;;;;;5034199;28;20422;-76
2024/04/01 12:41:20;;;;;;;55.63;52.47;;;;;;;;;;5034055;28;20491;-78
2024/04/01 12:43:47;;;;;;;52.60;49.27;;;;;;;;;;5034884;28;20461;-77
2024/04/01 12:46:15;;;;;;;43.53;41.10;;;;;;;;;;5034570;28;20451;-77
2024/04/01 12:48:41;;;;;;;43.97;41.60;;;;;;;;;;5034071;28;20440;-77
2024/04/01 12:51:10;;;;;;;41.00;38.90;;;;;;;;;;5033676;28;20487;-77
2024/04/01 12:53:50;;;;;;;42.93;40.07;;;;;;;;;;5034430;28;20455;-77
2024/04/01 12:56:26;;;;;;;47.07;44.47;;;;;;;;;;5034378;28;20397;-77
2024/04/01 12:58:59;;;;;;;42.80;40.60;;;;;;;;;;5033847;28;20497;-77
2024/04/01 13:01:33;;;;;;;59.93;56.83;;;;;;;;;;5033478;28;20489;-77
2024/04/01 13:04:06;;;;;;;56.33;53.03;;;;;;;;;;5034074;28;20433;-77
2024/04/01 13:06:43;;;;;;;59.63;56.53;;;;;;;;;;5034170;28;20418;-77
2024/04/01 13:09:11;;;;;;;54.17;51.40;;;;;;;;;;5033627;28;20432;-76
2024/04/01 13:11:45;;;;;;;56.07;53.27;;;;;;;;;;5033113;28;20487;-78
2024/04/01 13:14:31;;;;;;;52.13;49.53;;;;;;;;;;5033574;28;21029;-77
2024/04/01 13:17:02;;;;;;;52.53;49.53;;;;;;;;;;5033835;28;20442;-77
2024/04/01 13:19:31;;;;;;;48.97;46.17;;;;;;;;;;5033100;28;20668;-76
2024/04/01 13:22:04;;;;;;;49.13;46.40;;;;;;;;;;5032204;28;20479;-78
2024/04/01 13:24:31;;;;;;;46.07;43.67;;;;;;;;;;5033342;28;20449;-76
2024/04/01 13:27:01;;;;;;;44.83;42.60;;;;;;;;;;5033484;28;20952;-77
2024/04/01 13:29:39;;;;;;;39.97;37.87;;;;;;;;;;5033041;28;20451;-77
2024/04/01 13:32:10;;;;;;;53.10;49.50;;;;;;;;;;5031524;28;20488;-77
2024/04/01 13:34:41;;;;;;;41.33;39.13;;;;;;;;;;5033297;28;20443;-77
2024/04/01 13:37:16;;;;;;;41.40;39.20;;;;;;;;;;5033434;28;20461;-77
2024/04/01 13:39:52;;;;;;;40.33;38.13;;;;;;;;;;5032492;28;20416;-77
2024/04/01 13:42:24;;;;;;;36.63;34.93;;;;;;;;;;5032419;28;20442;-77
2024/04/01 13:44:58;;;;;;;38.37;36.47;;;;;;;;;;5031656;28;20913;-76
2024/04/01 13:47:33;;;;;;;40.23;37.93;;;;;;;;;;5032377;28;20499;-77
2024/04/01 13:50:05;;;;;;;42.00;39.90;;;;;;;;;;5032469;28;20398;-78
2024/04/01 13:52:41;;;;;;;37.43;35.33;;;;;;;;;;5033019;28;20464;-77
2024/04/01 13:55:12;;;;;;;37.77;35.77;;;;;;;;;;5032611;28;20482;-77
2024/04/01 13:57:45;;;;;;;40.70;38.50;;;;;;;;;;5032341;28;20560;-77
2024/04/01 14:00:17;;;;;;;35.43;33.53;;;;;;;;;;5032322;28;20446;-77
2024/04/01 14:02:48;;;;;;;37.40;35.20;;;;;;;;;;5032344;28;20495;-77
2024/04/01 14:05:27;;;;;;;41.13;38.77;;;;;;;;;;5032909;28;20432;-77
2024/04/01 14:07:57;;;;;;;39.23;36.67;;;;;;;;;;5032081;28;20562;-77
2024/04/01 14:10:28;;;;;;;40.90;38.30;;;;;;;;;;5031597;28;20995;-77
2024/04/01 14:13:14;;;;;;;42.40;39.60;;;;;;;;;;5032633;28;20468;-77
2024/04/01 14:15:48;;;;;;;43.60;41.13;;;;;;;;;;5032659;28;20522;-77
2024/04/01 14:18:22;;;;;;;36.97;35.00;;;;;;;;;;5031211;28;20509;-76
2024/04/01 14:20:49;;;;;;;37.77;35.50;;;;;;;;;;5032186;28;20521;-75
2024/04/01 14:23:16;;;;;;;43.23;40.63;;;;;;;;;;5031894;28;20510;-76
2024/04/01 14:25:43;;;;;;;43.77;41.30;;;;;;;;;;5032425;28;20479;-78
2024/04/01 14:28:10;;;;;;;41.50;39.00;;;;;;;;;;5030782;28;21001;-77